Time;durP1;ratioP1;P1;durP2;ratioP2;P2;SDS_P1;SDS_P2;PMS_P1;PMS_P2;Temp;Humidity;BMP_temperature;BMP_pressure;BME280_temperature;BME280_humidity;BME280_pressure;Samples;Min_cycle;Max_cycle;Signal;HPM_P1;HPM_P2
2022/05/17 00:01:27;;;;;;;5.25;4.10;;;17.80;99.90;;;;;;5074737;28;20216;-69
2022/05/17 00:03:54;;;;;;;4.90;4.35;;;17.60;99.90;;;;;;5074389;28;20297;-70
2022/05/17 00:06:22;;;;;;;4.90;4.40;;;17.50;99.90;;;;;;5074504;28;20318;-69
2022/05/17 00:08:49;;;;;;;5.50;4.43;;;17.50;99.90;;;;;;5074274;28;20211;-69
2022/05/17 00:11:16;;;;;;;5.40;4.90;;;17.40;99.90;;;;;;5074589;28;20206;-69
2022/05/17 00:13:43;;;;;;;6.25;5.65;;;17.40;99.90;;;;;;5074463;28;20569;-69
2022/05/17 00:16:09;;;;;;;4.97;4.40;;;17.30;99.90;;;;;;5074557;28;20530;-69
2022/05/17 00:18:37;;;;;;;5.65;5.03;;;17.30;99.90;;;;;;5074407;28;20206;-69
2022/05/17 00:21:04;;;;;;;4.82;4.43;;;17.30;99.90;;;;;;5074319;28;20672;-69
2022/05/17 00:23:33;;;;;;;4.22;3.90;;;17.30;99.90;;;;;;5074008;28;20202;-69
2022/05/17 00:26:00;;;;;;;6.22;5.00;;;17.40;99.90;;;;;;5073880;28;20226;-69
2022/05/17 00:28:27;;;;;;;4.70;4.30;;;17.50;99.90;;;;;;5074206;28;20205;-69
2022/05/17 00:30:54;;;;;;;5.65;4.55;;;17.50;99.90;;;;;;5074015;28;20207;-69
2022/05/17 00:33:21;;;;;;;4.60;4.20;;;17.40;99.90;;;;;;5073798;28;20298;-69
2022/05/17 00:35:48;;;;;;;5.45;4.80;;;17.30;99.90;;;;;;5073843;28;20218;-69
2022/05/17 00:38:16;;;;;;;4.53;4.13;;;17.20;99.90;;;;;;5074740;28;20206;-69
2022/05/17 00:40:44;;;;;;;5.35;4.82;;;17.10;99.90;;;;;;5074022;28;20572;-69
2022/05/17 00:43:15;;;;;;;4.95;4.10;;;17.10;99.90;;;;;;5073772;28;20300;-69
2022/05/17 00:45:48;;;;;;;5.22;4.45;;;17.10;99.90;;;;;;5073831;28;20222;-69
2022/05/17 00:48:16;;;;;;;4.95;4.47;;;17.10;99.90;;;;;;5073669;28;20187;-69
2022/05/17 00:50:47;;;;;;;5.20;4.40;;;17.10;99.90;;;;;;5073759;28;20660;-69
2022/05/17 00:53:19;;;;;;;5.30;4.70;;;17.10;99.90;;;;;;5073410;28;20214;-69
2022/05/17 00:55:52;;;;;;;5.53;4.60;;;17.20;99.90;;;;;;5073692;28;20237;-69
2022/05/17 00:58:24;;;;;;;4.80;4.40;;;17.20;99.90;;;;;;5073897;28;20278;-69
2022/05/17 01:00:56;;;;;;;5.05;4.50;;;17.30;99.90;;;;;;5073743;28;20230;-69
2022/05/17 01:03:26;;;;;;;5.35;4.80;;;17.40;99.90;;;;;;5073338;28;20209;-70
2022/05/17 01:05:55;;;;;;;4.72;4.07;;;17.40;99.90;;;;;;5073308;28;20238;-69
2022/05/17 01:08:25;;;;;;;6.55;4.55;;;17.30;99.90;;;;;;5073489;28;20206;-69
2022/05/17 01:10:53;;;;;;;4.60;4.20;;;17.20;99.90;;;;;;5073682;28;20564;-69
2022/05/17 01:16:06;;;;;;;5.00;4.50;;;16.80;99.90;;;;;;5073581;28;20408;-69
2022/05/17 01:18:35;;;;;;;6.72;4.45;;;16.90;99.90;;;;;;5073384;28;20665;-69
2022/05/17 01:21:03;;;;;;;6.10;5.03;;;16.80;99.90;;;;;;5073406;28;20210;-69
2022/05/17 01:23:31;;;;;;;5.03;4.53;;;16.80;99.90;;;;;;5073143;28;20210;-69
2022/05/17 01:25:58;;;;;;;5.10;4.70;;;16.80;99.90;;;;;;5073210;28;20272;-70
2022/05/17 01:28:27;;;;;;;4.78;4.38;;;16.90;99.90;;;;;;5073166;28;20741;-69
2022/05/17 01:30:54;;;;;;;5.07;4.57;;;16.90;99.90;;;;;;5073427;28;20233;-69
2022/05/17 01:33:23;;;;;;;5.65;4.88;;;16.90;99.90;;;;;;5073277;28;20208;-69
2022/05/17 01:35:49;;;;;;;4.88;4.45;;;16.80;99.90;;;;;;5073159;28;20592;-69
2022/05/17 01:38:17;;;;;;;5.47;4.97;;;16.60;99.90;;;;;;5073410;28;20206;-69
2022/05/17 01:40:44;;;;;;;4.95;4.03;;;16.50;99.90;;;;;;5074390;28;20209;-69
2022/05/17 01:43:11;;;;;;;5.50;5.00;;;16.50;99.90;;;;;;5077231;28;20198;-69
2022/05/17 01:45:38;;;;;;;5.20;4.70;;;16.60;99.90;;;;;;5077278;28;20317;-69
2022/05/17 01:48:06;;;;;;;4.95;4.45;;;16.70;99.90;;;;;;5077353;28;20221;-69
2022/05/17 01:50:32;;;;;;;5.65;5.15;;;16.70;99.90;;;;;;5077280;28;20198;-69
2022/05/17 01:52:59;;;;;;;5.40;4.90;;;16.80;99.90;;;;;;5076914;28;20198;-69
2022/05/17 01:55:27;;;;;;;5.40;4.82;;;16.80;99.90;;;;;;5076843;28;20229;-69
2022/05/17 01:57:54;;;;;;;5.55;5.07;;;16.80;99.90;;;;;;5077097;28;20309;-69
2022/05/17 02:00:23;;;;;;;5.60;5.10;;;16.80;99.90;;;;;;5076984;28;20293;-69
2022/05/17 02:02:50;;;;;;;5.80;4.68;;;16.90;99.90;;;;;;5076804;28;20199;-69
2022/05/17 02:05:18;;;;;;;4.47;4.18;;;16.90;99.90;;;;;;5076699;28;20230;-69
2022/05/17 02:07:45;;;;;;;5.75;5.25;;;16.80;99.90;;;;;;5076800;28;20234;-69
2022/05/17 02:10:12;;;;;;;5.35;4.85;;;16.80;99.90;;;;;;5076896;28;20230;-69
2022/05/17 02:12:41;;;;;;;5.50;5.00;;;16.80;99.90;;;;;;5076701;28;20573;-69
2022/05/17 02:15:08;;;;;;;6.85;5.20;;;16.70;99.90;;;;;;5076662;28;20254;-69
2022/05/17 02:17:37;;;;;;;5.70;5.20;;;16.40;99.90;;;;;;5076451;28;20206;-69
2022/05/17 02:20:05;;;;;;;8.82;5.28;;;16.30;99.90;;;;;;5076619;28;20212;-69
2022/05/17 02:22:31;;;;;;;5.40;4.95;;;16.40;99.90;;;;;;5076494;28;20206;-69
2022/05/17 02:24:58;;;;;;;7.18;5.20;;;16.40;99.90;;;;;;5076525;28;20312;-69
2022/05/17 02:27:25;;;;;;;5.13;4.50;;;16.50;99.90;;;;;;5076213;28;20645;-69
2022/05/17 02:29:53;;;;;;;5.45;4.95;;;16.50;99.90;;;;;;5076514;28;20208;-69
2022/05/17 02:32:20;;;;;;;6.90;5.10;;;16.50;99.90;;;;;;5076171;28;20212;-69
2022/05/17 02:34:47;;;;;;;5.47;5.00;;;16.60;99.90;;;;;;5076242;28;20230;-69
2022/05/17 02:37:15;;;;;;;5.13;4.72;;;16.60;99.90;;;;;;5076427;28;20217;-69
2022/05/17 02:39:42;;;;;;;6.60;4.55;;;16.60;99.90;;;;;;5076330;28;20215;-69
2022/05/17 02:42:09;;;;;;;5.20;4.70;;;16.60;99.90;;;;;;5076180;28;20213;-69
2022/05/17 02:44:37;;;;;;;5.63;5.13;;;16.50;99.90;;;;;;5076294;28;20258;-69
2022/05/17 02:47:06;;;;;;;5.60;5.10;;;16.50;99.90;;;;;;5075840;28;20249;-69
2022/05/17 02:49:33;;;;;;;6.82;5.45;;;16.50;99.90;;;;;;5076130;28;20205;-70
2022/05/17 02:52:01;;;;;;;5.75;5.25;;;16.60;99.90;;;;;;5075451;28;20298;-69
2022/05/17 02:54:28;;;;;;;6.15;5.53;;;16.60;99.90;;;;;;5075617;28;20215;-69
2022/05/17 02:56:55;;;;;;;7.13;5.70;;;16.60;99.90;;;;;;5076008;28;20314;-69
2022/05/17 02:59:22;;;;;;;6.32;5.45;;;16.50;99.90;;;;;;5075967;28;20208;-69
2022/05/17 03:01:49;;;;;;;6.53;5.55;;;16.50;99.90;;;;;;5075877;28;20211;-69
2022/05/17 03:04:17;;;;;;;6.20;5.60;;;16.50;99.90;;;;;;5075482;28;20210;-69
2022/05/17 03:06:46;;;;;;;6.18;5.43;;;16.40;99.90;;;;;;5075776;28;20234;-69
2022/05/17 03:09:13;;;;;;;6.00;5.50;;;16.40;99.90;;;;;;5075936;28;20228;-69
2022/05/17 03:11:43;;;;;;;6.30;5.50;;;16.50;99.90;;;;;;5075793;28;20702;-69
2022/05/17 03:14:10;;;;;;;6.50;5.70;;;16.40;99.90;;;;;;5075564;28;20293;-69
2022/05/17 03:16:37;;;;;;;5.78;5.28;;;16.40;99.90;;;;;;5075353;28;20225;-69
2022/05/17 03:19:05;;;;;;;6.45;5.75;;;16.40;99.90;;;;;;5076096;28;20311;-69
2022/05/17 03:21:34;;;;;;;6.35;5.75;;;16.40;99.90;;;;;;5075603;28;20568;-69
2022/05/17 03:24:00;;;;;;;6.55;5.50;;;16.30;99.90;;;;;;5075262;28;20762;-69
2022/05/17 03:26:28;;;;;;;6.05;5.45;;;16.30;99.90;;;;;;5075178;28;20233;-69
2022/05/17 03:28:56;;;;;;;6.35;5.75;;;16.30;99.90;;;;;;5075342;28;20206;-69
2022/05/17 03:31:23;;;;;;;6.60;6.00;;;16.20;99.90;;;;;;5075385;28;20201;-69
2022/05/17 03:33:50;;;;;;;6.13;5.60;;;16.10;99.90;;;;;;5075171;28;20202;-69
2022/05/17 03:36:17;;;;;;;7.50;5.90;;;16.00;99.90;;;;;;5075297;28;20268;-69
2022/05/17 03:38:45;;;;;;;6.53;5.85;;;15.90;99.90;;;;;;5075338;28;20224;-69
2022/05/17 03:41:12;;;;;;;6.78;6.07;;;16.00;99.90;;;;;;5075228;28;20206;-69
2022/05/17 03:43:40;;;;;;;6.85;6.10;;;15.90;99.90;;;;;;5074740;28;20296;-69
2022/05/17 03:46:08;;;;;;;7.05;6.35;;;15.90;99.90;;;;;;5075052;28;20257;-69
2022/05/17 03:48:35;;;;;;;7.03;6.35;;;15.90;99.90;;;;;;5074979;28;20208;-69
2022/05/17 03:51:02;;;;;;;6.82;6.10;;;16.00;99.90;;;;;;5074820;28;20295;-69
2022/05/17 03:53:29;;;;;;;8.02;6.18;;;15.90;99.90;;;;;;5074478;28;20299;-69
2022/05/17 03:55:57;;;;;;;6.72;6.10;;;15.90;99.90;;;;;;5074612;28;20309;-69
2022/05/17 03:58:24;;;;;;;6.80;6.10;;;16.00;99.90;;;;;;5074452;28;20737;-69
2022/05/17 04:00:50;;;;;;;7.50;6.68;;;16.00;99.90;;;;;;5074845;28;20571;-69
2022/05/17 04:03:19;;;;;;;6.88;6.18;;;16.10;99.90;;;;;;5074211;28;20209;-69
2022/05/17 04:05:47;;;;;;;7.10;6.47;;;16.10;99.90;;;;;;5074580;28;20232;-69
2022/05/17 04:08:14;;;;;;;7.80;5.80;;;16.00;99.90;;;;;;5074663;28;20202;-69
2022/05/17 04:10:40;;;;;;;6.72;6.13;;;16.00;99.90;;;;;;5074492;28;20296;-69
2022/05/17 04:13:09;;;;;;;7.18;6.50;;;16.00;99.90;;;;;;5074807;28;20296;-69
2022/05/17 04:15:36;;;;;;;6.68;5.97;;;16.00;99.90;;;;;;5074342;28;20226;-69
2022/05/17 04:18:03;;;;;;;7.50;6.65;;;15.80;99.90;;;;;;5074082;28;20222;-69
2022/05/17 04:20:31;;;;;;;6.68;6.07;;;15.70;99.90;;;;;;5074240;28;20202;-69
2022/05/17 04:22:58;;;;;;;8.43;6.70;;;15.80;99.90;;;;;;5073983;28;20216;-69
2022/05/17 04:25:27;;;;;;;7.00;6.30;;;15.90;99.90;;;;;;5074282;28;20225;-69
2022/05/17 04:27:54;;;;;;;7.15;6.55;;;15.90;99.90;;;;;;5074057;28;20212;-69
2022/05/17 04:30:23;;;;;;;7.10;6.50;;;16.00;99.90;;;;;;5074201;28;20205;-69
2022/05/17 04:32:50;;;;;;;7.80;6.80;;;16.00;99.90;;;;;;5073917;28;20201;-69
2022/05/17 04:35:18;;;;;;;7.65;6.95;;;16.00;99.90;;;;;;5073888;28;20316;-69
2022/05/17 04:37:45;;;;;;;7.63;6.82;;;16.00;99.90;;;;;;5074031;28;20234;-69
2022/05/17 04:40:13;;;;;;;9.18;7.40;;;15.90;99.90;;;;;;5074048;28;20206;-69
2022/05/17 04:42:43;;;;;;;7.53;6.82;;;15.90;99.90;;;;;;5073801;28;20202;-69
2022/05/17 04:45:13;;;;;;;9.13;8.20;;;15.90;99.90;;;;;;5073696;28;20679;-69
2022/05/17 04:47:42;;;;;;;8.88;7.97;;;15.80;99.90;;;;;;5073995;28;20190;-69
2022/05/17 04:50:11;;;;;;;8.40;7.60;;;15.70;99.90;;;;;;5073836;28;20220;-69
2022/05/17 04:52:38;;;;;;;9.82;8.07;;;15.70;99.90;;;;;;5073815;28;20213;-69
2022/05/17 04:55:07;;;;;;;9.80;8.80;;;15.50;99.90;;;;;;5073707;28;20331;-69
2022/05/17 04:57:35;;;;;;;9.75;8.68;;;15.40;99.90;;;;;;5073785;28;20230;-69
2022/05/17 05:00:02;;;;;;;9.77;8.52;;;15.40;99.90;;;;;;5073785;28;20207;-69
2022/05/17 05:02:29;;;;;;;8.35;7.53;;;15.40;99.90;;;;;;5073526;28;20201;-69
2022/05/17 05:04:57;;;;;;;9.43;8.20;;;15.30;99.90;;;;;;5073364;28;20704;-69
2022/05/17 05:07:24;;;;;;;9.50;8.23;;;15.20;99.90;;;;;;5073750;28;20202;-69
2022/05/17 05:09:51;;;;;;;9.65;7.65;;;15.20;99.90;;;;;;5073653;28;20205;-69
2022/05/17 05:12:17;;;;;;;11.20;7.20;;;15.30;99.90;;;;;;5073457;28;20233;-69
2022/05/17 05:14:44;;;;;;;8.35;7.55;;;15.50;99.90;;;;;;5073366;28;20245;-69
2022/05/17 05:17:11;;;;;;;8.35;7.10;;;15.60;99.90;;;;;;5073194;28;20221;-69
2022/05/17 05:19:38;;;;;;;8.65;7.72;;;15.70;99.90;;;;;;5073540;28;20209;-69
2022/05/17 05:22:06;;;;;;;8.32;7.50;;;15.90;99.90;;;;;;5073458;28;20214;-69
2022/05/17 05:24:34;;;;;;;7.85;6.95;;;16.00;99.90;;;;;;5073454;28;20206;-69
2022/05/17 05:27:01;;;;;;;7.57;6.57;;;16.10;99.90;;;;;;5073675;28;20272;-69
2022/05/17 05:29:27;;;;;;;7.60;6.80;;;16.10;99.90;;;;;;5073459;28;20252;-69
2022/05/17 05:31:54;;;;;;;10.82;7.10;;;16.00;99.90;;;;;;5073388;28;20214;-69
2022/05/17 05:34:21;;;;;;;7.65;6.90;;;16.00;99.90;;;;;;5073246;28;20296;-69
2022/05/17 05:36:48;;;;;;;7.40;6.70;;;15.90;99.90;;;;;;5073354;28;20560;-69
2022/05/17 05:39:16;;;;;;;8.77;7.30;;;15.80;99.90;;;;;;5073308;28;20231;-69
2022/05/17 05:41:44;;;;;;;8.57;7.43;;;15.90;99.90;;;;;;5073252;28;20219;-69
2022/05/17 05:44:11;;;;;;;7.20;6.50;;;16.00;99.90;;;;;;5073171;28;20206;-69
2022/05/17 05:46:38;;;;;;;10.40;6.90;;;16.20;99.90;;;;;;5073028;28;20280;-69
2022/05/17 05:49:04;;;;;;;7.00;6.30;;;16.30;99.90;;;;;;5073060;28;20290;-69
2022/05/17 05:51:31;;;;;;;7.18;6.43;;;16.40;99.90;;;;;;5073250;28;20304;-69
2022/05/17 05:53:58;;;;;;;7.28;6.53;;;16.50;99.90;;;;;;5072830;28;20211;-69
2022/05/17 05:56:26;;;;;;;7.80;6.85;;;16.50;99.90;;;;;;5073141;28;20233;-69
2022/05/17 05:58:53;;;;;;;6.90;6.30;;;16.40;99.90;;;;;;5072765;28;20733;-69
2022/05/17 06:01:20;;;;;;;8.18;7.30;;;16.40;99.90;;;;;;5073152;28;20300;-69
2022/05/17 06:03:47;;;;;;;6.47;5.88;;;16.50;99.90;;;;;;5072973;28;20633;-69
2022/05/17 06:06:16;;;;;;;7.47;5.90;;;16.60;99.90;;;;;;5073120;28;20225;-69
2022/05/17 06:08:43;;;;;;;7.38;5.68;;;16.70;99.90;;;;;;5073093;28;20300;-69
2022/05/17 06:11:10;;;;;;;7.40;6.60;;;16.80;99.90;;;;;;5073065;28;20203;-69
2022/05/17 06:13:39;;;;;;;6.40;5.90;;;16.70;99.90;;;;;;5072587;28;20576;-69
2022/05/17 06:16:06;;;;;;;7.65;6.90;;;16.80;99.90;;;;;;5072684;28;20222;-69
2022/05/17 06:18:32;;;;;;;7.10;6.40;;;17.00;99.90;;;;;;5072742;28;20234;-69
2022/05/17 06:21:02;;;;;;;6.95;6.22;;;17.00;99.90;;;;;;5072971;28;20311;-69
2022/05/17 06:23:29;;;;;;;7.35;6.22;;;16.90;99.90;;;;;;5072605;28;20203;-69
2022/05/17 06:25:56;;;;;;;9.10;7.90;;;16.80;99.90;;;;;;5072839;28;20237;-70
2022/05/17 06:28:23;;;;;;;7.20;6.50;;;16.90;99.90;;;;;;5076213;28;20656;-69
2022/05/17 06:30:52;;;;;;;8.20;7.20;;;16.90;99.90;;;;;;5076582;28;20563;-69
2022/05/17 06:33:19;;;;;;;8.40;6.30;;;16.90;99.90;;;;;;5076330;28;20205;-69
2022/05/17 06:35:48;;;;;;;7.85;7.15;;;16.90;99.90;;;;;;5076702;28;20230;-69
2022/05/17 06:38:16;;;;;;;7.63;6.90;;;16.90;99.90;;;;;;5076399;28;20222;-69
2022/05/17 06:40:43;;;;;;;7.88;7.07;;;17.00;99.90;;;;;;5076024;28;20292;-69
2022/05/17 06:43:10;;;;;;;8.55;7.68;;;17.10;99.90;;;;;;5075929;28;20213;-69
2022/05/17 06:45:37;;;;;;;7.45;6.30;;;17.10;99.90;;;;;;5076102;28;20580;-69
2022/05/17 06:48:06;;;;;;;8.10;7.30;;;17.20;99.90;;;;;;5076274;28;20202;-69
2022/05/17 06:50:34;;;;;;;9.48;7.30;;;17.30;99.90;;;;;;5076321;28;20210;-69
2022/05/17 06:53:03;;;;;;;9.73;6.75;;;17.40;99.90;;;;;;5075751;28;20210;-69
2022/05/17 06:55:31;;;;;;;8.80;7.38;;;17.50;99.90;;;;;;5075824;28;20408;-69
2022/05/17 06:57:58;;;;;;;7.97;7.18;;;17.70;99.90;;;;;;5076289;28;20229;-69
2022/05/17 07:00:25;;;;;;;8.32;6.78;;;17.90;99.90;;;;;;5075940;28;20217;-69
2022/05/17 07:02:52;;;;;;;8.60;7.80;;;18.10;99.90;;;;;;5075691;28;20285;-69
2022/05/17 07:05:20;;;;;;;9.60;8.27;;;18.30;99.90;;;;;;5075798;28;20227;-69
2022/05/17 07:07:47;;;;;;;7.15;6.45;;;18.60;99.90;;;;;;5075850;28;20206;-69
2022/05/17 07:13:12;;;;;;;7.57;6.90;;;18.90;99.90;;;;;;5075577;28;20426;-69
2022/05/17 07:15:42;;;;;;;6.90;6.30;;;19.00;99.90;;;;;;5075556;28;20258;-69
2022/05/17 07:18:11;;;;;;;7.83;7.13;;;19.10;99.90;;;;;;5075551;28;20536;-69
2022/05/17 07:20:40;;;;;;;8.20;7.50;;;19.20;99.90;;;;;;5075577;28;20445;-69
2022/05/17 07:23:07;;;;;;;10.18;7.10;;;19.20;99.90;;;;;;5075398;28;20218;-69
2022/05/17 07:25:34;;;;;;;6.78;6.07;;;19.30;99.90;;;;;;5075347;28;20704;-69
2022/05/17 07:28:01;;;;;;;7.03;6.33;;;19.30;99.90;;;;;;5075289;28;20288;-69
2022/05/17 07:30:29;;;;;;;7.73;7.03;;;19.40;99.90;;;;;;5075435;28;20448;-69
2022/05/17 07:32:57;;;;;;;7.63;6.77;;;19.50;99.90;;;;;;5074949;28;20441;-70
2022/05/17 07:35:24;;;;;;;8.13;7.30;;;19.60;99.90;;;;;;5075242;28;20467;-69
2022/05/17 07:37:52;;;;;;;7.47;6.87;;;19.70;99.90;;;;;;5075329;28;20909;-69
2022/05/17 07:40:19;;;;;;;7.40;6.70;;;19.80;99.90;;;;;;5074996;28;20439;-69
2022/05/17 07:42:46;;;;;;;7.30;6.70;;;20.00;99.90;;;;;;5074955;28;20466;-69
2022/05/17 07:45:14;;;;;;;7.30;6.60;;;20.10;99.90;;;;;;5075069;28;20459;-69
2022/05/17 07:47:41;;;;;;;7.20;6.47;;;20.20;99.90;;;;;;5074894;28;20949;-69
2022/05/17 07:50:10;;;;;;;7.63;6.93;;;20.40;99.90;;;;;;5075027;28;20444;-69
2022/05/17 07:52:37;;;;;;;6.77;6.17;;;20.50;99.90;;;;;;5075006;28;20443;-69
2022/05/17 07:55:06;;;;;;;6.80;6.20;;;20.60;99.90;;;;;;5074764;28;20459;-69
2022/05/17 07:57:33;;;;;;;6.77;6.00;;;20.70;99.90;;;;;;5074914;28;20450;-69
2022/05/17 08:00:00;;;;;;;7.77;6.97;;;20.60;99.90;;;;;;5074750;28;20532;-69
2022/05/17 08:02:27;;;;;;;8.20;6.33;;;20.70;99.90;;;;;;5074587;28;20451;-70
2022/05/17 08:04:54;;;;;;;7.13;5.90;;;20.90;99.90;;;;;;5074624;28;20788;-69
2022/05/17 08:07:21;;;;;;;7.63;6.80;;;21.30;99.90;;;;;;5074775;28;20441;-70
2022/05/17 08:09:48;;;;;;;8.10;6.57;;;21.70;99.90;;;;;;5074772;28;20438;-69
2022/05/17 08:12:16;;;;;;;6.43;5.93;;;22.40;99.90;;;;;;5074366;28;20442;-70
2022/05/17 08:14:44;;;;;;;6.33;5.73;;;23.00;99.90;;;;;;5074587;28;20522;-70
2022/05/17 08:17:11;;;;;;;6.10;5.60;;;23.70;99.90;;;;;;5074558;28;20448;-70
2022/05/17 08:19:38;;;;;;;6.80;5.43;;;24.10;99.90;;;;;;5074419;28;20479;-70
2022/05/17 08:22:06;;;;;;;6.53;5.93;;;24.30;99.70;;;;;;5074188;28;20483;-69
2022/05/17 08:27:31;;;;;;;5.80;5.30;;;24.60;97.70;;;;;;5074388;28;20445;-70
2022/05/17 08:27:36;;;;;;;5.43;5.00;;;25.10;96.80;;;;;;5074080;28;20433;-70
2022/05/17 08:30:07;;;;;;;6.63;6.03;;;25.80;94.70;;;;;;5074191;28;20445;-70
2022/05/17 08:35:18;;;;;;;6.37;5.87;;;27.40;90.10;;;;;;5074153;28;20439;-70
2022/05/17 08:37:45;;;;;;;5.57;5.10;;;28.60;82.30;;;;;;5074129;28;20531;-70
2022/05/17 08:40:19;;;;;;;5.60;5.10;;;29.80;74.80;;;;;;5074107;28;20459;-70
2022/05/17 08:42:56;;;;;;;6.47;4.63;;;30.50;69.80;;;;;;5073857;28;20869;-70
2022/05/17 08:45:41;;;;;;;9.03;4.70;;;30.90;65.70;;;;;;5073894;28;20470;-70
2022/05/17 08:48:13;;;;;;;5.20;4.70;;;31.30;64.20;;;;;;5073780;28;21004;-70
2022/05/17 08:50:40;;;;;;;5.43;5.00;;;31.20;64.20;;;;;;5073019;28;20480;-70
2022/05/17 08:53:13;;;;;;;5.97;5.47;;;31.60;61.20;;;;;;5073616;28;20451;-70
2022/05/17 08:55:42;;;;;;;4.90;4.60;;;31.90;59.50;;;;;;5073656;28;20965;-70
2022/05/17 08:58:17;;;;;;;5.83;5.33;;;32.10;62.00;;;;;;5073729;28;20447;-70
2022/05/17 09:00:48;;;;;;;6.00;5.50;;;32.00;56.20;;;;;;5073867;28;20443;-70
2022/05/17 09:03:35;;;;;;;6.30;5.70;;;31.20;57.70;;;;;;5073639;28;20447;-70
2022/05/17 09:06:11;;;;;;;5.90;5.40;;;30.00;58.90;;;;;;5073701;28;20471;-70
2022/05/17 09:08:48;;;;;;;5.73;5.20;;;29.50;61.80;;;;;;5073412;28;20428;-70
2022/05/17 09:11:21;;;;;;;5.73;5.33;;;28.90;62.80;;;;;;5073710;28;20444;-70
2022/05/17 09:13:55;;;;;;;5.60;5.20;;;28.50;64.30;;;;;;5073417;28;20453;-70
2022/05/17 09:16:23;;;;;;;6.27;5.63;;;28.20;64.90;;;;;;5073436;28;20500;-70
2022/05/17 09:18:51;;;;;;;5.20;4.80;;;28.20;66.70;;;;;;5073499;28;20478;-70
2022/05/17 09:21:29;;;;;;;5.57;5.07;;;28.30;66.00;;;;;;5073308;28;20790;-70
2022/05/17 09:23:59;;;;;;;6.00;5.50;;;29.20;66.90;;;;;;5073438;28;20441;-70
2022/05/17 09:26:27;;;;;;;5.20;4.80;;;29.90;62.60;;;;;;5073682;28;20538;-70
2022/05/17 09:29:01;;;;;;;5.30;4.87;;;30.30;60.40;;;;;;5073493;28;20483;-70
2022/05/17 09:31:31;;;;;;;5.23;4.83;;;30.90;58.50;;;;;;5073376;28;20524;-70
2022/05/17 09:34:01;;;;;;;5.77;5.20;;;31.10;58.00;;;;;;5073016;28;20485;-70
2022/05/17 09:36:33;;;;;;;6.40;5.90;;;31.20;56.90;;;;;;5073113;28;20473;-70
2022/05/17 09:39:01;;;;;;;17.83;7.80;;;30.20;57.40;;;;;;5073320;28;20503;-70
2022/05/17 09:41:35;;;;;;;5.73;4.90;;;29.30;60.80;;;;;;5073342;28;20459;-70
2022/05/17 09:44:06;;;;;;;5.77;5.27;;;28.50;61.30;;;;;;5072930;28;20456;-70
2022/05/17 09:46:34;;;;;;;6.70;5.10;;;28.00;63.80;;;;;;5073359;28;20466;-70
2022/05/17 09:54:40;;;;;;;6.47;5.13;;;29.00;67.60;;;;;;5073092;28;20448;-70
2022/05/17 09:57:16;;;;;;;5.80;5.30;;;30.30;59.40;;;;;;5073222;28;20551;-70
2022/05/17 09:59:46;;;;;;;5.67;5.17;;;31.00;56.80;;;;;;5073171;28;20564;-70
2022/05/17 10:02:39;;;;;;;5.60;5.20;;;30.50;58.40;;;;;;5074751;28;20452;-70
2022/05/17 10:05:23;;;;;;;5.93;4.90;;;29.80;57.20;;;;;;5076780;28;20471;-70
2022/05/17 10:07:52;;;;;;;5.10;4.70;;;29.40;58.80;;;;;;5077099;28;20526;-70
2022/05/17 10:10:29;;;;;;;5.00;4.63;;;29.30;59.70;;;;;;5076952;28;20856;-70
2022/05/17 10:13:01;;;;;;;5.37;4.97;;;29.40;60.20;;;;;;5076835;28;20471;-71
2022/05/17 10:15:32;;;;;;;5.27;4.87;;;29.90;60.90;;;;;;5076690;28;20524;-71
2022/05/17 10:18:04;;;;;;;4.87;4.57;;;31.50;58.30;;;;;;5076845;28;20449;-70
2022/05/17 10:20:36;;;;;;;5.40;5.00;;;32.70;54.10;;;;;;5076558;28;20477;-70
2022/05/17 10:23:09;;;;;;;5.23;4.73;;;32.70;53.70;;;;;;5076476;28;20448;-70
2022/05/17 10:25:42;;;;;;;4.70;4.40;;;32.60;55.90;;;;;;5076561;28;20464;-70
2022/05/17 10:28:16;;;;;;;5.10;4.60;;;32.40;53.10;;;;;;5076396;28;20498;-70
2022/05/17 10:30:50;;;;;;;4.80;4.50;;;32.20;53.20;;;;;;5076624;28;20490;-70
2022/05/17 10:33:22;;;;;;;4.80;4.40;;;32.40;50.70;;;;;;5076170;28;20934;-70
2022/05/17 10:35:51;;;;;;;5.00;4.60;;;32.00;51.90;;;;;;5076441;28;20474;-70
2022/05/17 10:38:22;;;;;;;6.00;4.93;;;31.70;51.80;;;;;;5076447;28;20452;-70
2022/05/17 10:40:51;;;;;;;5.50;5.10;;;30.80;53.30;;;;;;5076402;28;20433;-70
2022/05/17 10:43:26;;;;;;;4.60;4.20;;;29.70;54.60;;;;;;5076022;28;20436;-69
2022/05/17 10:46:00;;;;;;;5.93;5.10;;;29.10;55.70;;;;;;5076152;28;20558;-70
2022/05/17 10:48:41;;;;;;;5.27;4.80;;;28.90;56.50;;;;;;5076314;28;20458;-70
2022/05/17 10:51:21;;;;;;;4.93;4.53;;;28.30;58.60;;;;;;5076018;28;20437;-70
2022/05/17 10:54:02;;;;;;;5.10;4.70;;;28.20;61.00;;;;;;5075862;28;20455;-70
2022/05/17 10:56:41;;;;;;;6.30;5.70;;;28.20;60.70;;;;;;5075873;28;20463;-70
2022/05/17 10:59:15;;;;;;;5.47;5.07;;;28.20;59.70;;;;;;5076022;28;20477;-70
2022/05/17 11:01:52;;;;;;;4.77;4.47;;;28.00;60.30;;;;;;5076066;28;20441;-70
2022/05/17 11:04:57;;;;;;;6.33;5.43;;;27.90;59.50;;;;;;5075801;28;20478;-70
2022/05/17 11:07:31;;;;;;;4.80;4.30;;;27.70;58.80;;;;;;5075974;28;20444;-70
2022/05/17 11:10:03;;;;;;;4.50;4.10;;;27.60;58.60;;;;;;5075722;28;20444;-70
2022/05/17 11:12:38;;;;;;;4.50;4.20;;;27.30;61.20;;;;;;5075357;28;20441;-70
2022/05/17 11:15:11;;;;;;;4.10;3.73;;;27.10;59.60;;;;;;5075209;28;20465;-70
2022/05/17 11:17:50;;;;;;;4.33;4.00;;;26.80;64.70;;;;;;5075470;28;20986;-70
2022/05/17 11:20:23;;;;;;;4.73;4.30;;;26.80;62.80;;;;;;5075383;28;20969;-70
2022/05/17 11:22:58;;;;;;;5.80;4.90;;;26.70;61.80;;;;;;5075401;28;20444;-70
2022/05/17 11:25:53;;;;;;;10.27;5.43;;;26.60;62.20;;;;;;5075488;28;20522;-70
2022/05/17 11:28:40;;;;;;;3.73;3.43;;;26.50;60.30;;;;;;5075340;28;20927;-70
2022/05/17 11:31:13;;;;;;;5.13;4.60;;;26.10;61.10;;;;;;5075198;28;20460;-70
2022/05/17 11:33:42;;;;;;;5.20;4.80;;;25.70;62.60;;;;;;5075317;28;20861;-70
2022/05/17 11:36:12;;;;;;;4.73;4.20;;;25.70;64.20;;;;;;5075044;28;20468;-70
2022/05/17 11:38:51;;;;;;;5.23;4.03;;;25.80;62.70;;;;;;5075295;28;20441;-70
2022/05/17 11:41:22;;;;;;;10.37;5.70;;;25.90;63.10;;;;;;5075112;28;20927;-70
2022/05/17 11:43:52;;;;;;;3.73;3.43;;;25.80;61.00;;;;;;5075101;28;20484;-70
2022/05/17 11:46:48;;;;;;;4.10;3.70;;;26.00;62.70;;;;;;5074929;28;21140;-70
2022/05/17 11:49:41;;;;;;;4.30;3.37;;;26.10;62.00;;;;;;5075141;28;20469;-70
2022/05/17 11:52:30;;;;;;;3.43;3.23;;;26.30;65.10;;;;;;5074915;28;20452;-70
2022/05/17 11:54:57;;;;;;;4.30;2.93;;;26.50;64.10;;;;;;5074601;28;20456;-70
2022/05/17 11:57:58;;;;;;;3.33;3.03;;;26.20;58.20;;;;;;5074912;28;20444;-70
2022/05/17 12:00:41;;;;;;;3.30;3.10;;;26.10;59.50;;;;;;5074882;28;20835;-70
2022/05/17 12:03:40;;;;;;;2.63;2.43;;;26.20;58.70;;;;;;5074701;28;20445;-70
2022/05/17 12:06:28;;;;;;;3.17;2.87;;;26.40;57.60;;;;;;5074799;28;20473;-70
2022/05/17 12:08:55;;;;;;;3.10;2.90;;;26.50;56.80;;;;;;5074655;28;20566;-70
2022/05/17 12:11:36;;;;;;;3.13;2.93;;;26.50;57.40;;;;;;5074793;28;20842;-70
2022/05/17 12:14:10;;;;;;;3.20;2.90;;;26.70;56.40;;;;;;5074138;28;20539;-70
2022/05/17 12:16:44;;;;;;;3.47;2.77;;;27.00;56.40;;;;;;5074609;28;20475;-70
2022/05/17 12:19:21;;;;;;;2.83;2.63;;;27.20;55.50;;;;;;5074435;28;20448;-70
2022/05/17 12:21:58;;;;;;;2.80;2.60;;;27.30;57.30;;;;;;5074432;28;20441;-70
2022/05/17 12:24:33;;;;;;;2.90;2.70;;;27.30;55.60;;;;;;5074013;28;20445;-70
2022/05/17 12:27:13;;;;;;;2.70;2.50;;;27.00;57.10;;;;;;5074077;28;20559;-70
2022/05/17 12:32:29;;;;;;;2.93;2.67;;;26.60;56.80;;;;;;5074149;28;20425;-70
2022/05/17 12:34:57;;;;;;;4.50;2.47;;;26.50;57.80;;;;;;5074096;28;20433;-70
2022/05/17 12:37:28;;;;;;;1.90;1.70;;;26.40;57.60;;;;;;5073922;28;20453;-70
2022/05/17 12:45:29;;;;;;;3.80;3.07;;;26.60;55.50;;;;;;5074156;28;20486;-70
2022/05/17 12:47:58;;;;;;;15.67;12.00;;;26.60;54.10;;;;;;5073980;28;20441;-70
2022/05/17 12:50:30;;;;;;;5.80;5.27;;;26.60;54.30;;;;;;5073954;28;20433;-70
2022/05/17 12:53:00;;;;;;;2.73;2.53;;;26.70;54.70;;;;;;5073716;28;20445;-70
2022/05/17 12:55:29;;;;;;;1.90;1.80;;;26.80;54.10;;;;;;5073621;28;20476;-70
2022/05/17 12:57:56;;;;;;;3.43;3.23;;;26.90;53.10;;;;;;5073606;28;20935;-70
2022/05/17 13:00:28;;;;;;;2.07;1.97;;;26.90;53.70;;;;;;5073715;28;20487;-70
2022/05/17 13:02:58;;;;;;;1.77;1.53;;;27.00;52.30;;;;;;5073673;28;20878;-70
2022/05/17 13:05:33;;;;;;;2.30;2.10;;;27.20;52.30;;;;;;5073646;28;20465;-70
2022/05/17 13:08:05;;;;;;;2.43;2.20;;;27.30;53.10;;;;;;5073835;28;20520;-70
2022/05/17 13:10:33;;;;;;;2.07;1.97;;;27.40;53.40;;;;;;5073772;28;20440;-70
2022/05/17 13:13:00;;;;;;;2.17;1.90;;;27.50;53.50;;;;;;5073537;28;20528;-70
2022/05/17 13:15:29;;;;;;;2.63;2.43;;;27.60;52.80;;;;;;5073403;28;20967;-70
2022/05/17 13:17:58;;;;;;;3.10;2.70;;;27.40;54.20;;;;;;5073382;28;20471;-70
2022/05/17 13:20:28;;;;;;;2.60;2.50;;;27.40;56.40;;;;;;5073454;28;20983;-70
2022/05/17 13:22:56;;;;;;;2.07;1.97;;;27.10;55.30;;;;;;5073457;28;20444;-70